sensor_id;sensor_type;location;lat;lon;timestamp;pressure;altitude;pressure_sealevel;temperature;humidity
39295;BME280;52361;52.100;5.248;2022-12-18T00:01:00;102756.0;;;-1.41;100.0
39295;BME280;52361;52.100;5.248;2022-12-18T00:02:36;102763.00000000001;;;-1.26;100.0
39295;BME280;52361;52.100;5.248;2022-12-18T00:04:18;102751.0;;;-1.15;100.0
39295;BME280;52361;52.100;5.248;2022-12-18T00:05:58;102751.0;;;-1.13;100.0
39295;BME280;52361;52.100;5.248;2022-12-18T00:09:12;102741.00000000001;;;-1.02;100.0
39295;BME280;52361;52.100;5.248;2022-12-18T00:10:48;102741.00000000001;;;-1.15;100.0
39295;BME280;52361;52.100;5.248;2022-12-18T00:12:24;102731.0;;;-1.19;100.0
39295;BME280;52361;52.100;5.248;2022-12-18T00:15:37;102733.0;;;-1.09;100.0
39295;BME280;52361;52.100;5.248;2022-12-18T00:17:15;102721.0;;;-1.27;100.0
39295;BME280;52361;52.100;5.248;2022-12-18T00:18:53;102721.0;;;-1.39;100.0
39295;BME280;52361;52.100;5.248;2022-12-18T00:22:12;102724.0;;;-1.57;100.0
39295;BME280;52361;52.100;5.248;2022-12-18T00:23:50;102722.0;;;-1.69;100.0
39295;BME280;52361;52.100;5.248;2022-12-18T00:25:27;102720.0;;;-1.76;100.0
39295;BME280;52361;52.100;5.248;2022-12-18T00:27:03;102727.0;;;-1.61;100.0
39295;BME280;52361;52.100;5.248;2022-12-18T00:30:16;102732.0;;;-1.55;100.0
39295;BME280;52361;52.100;5.248;2022-12-18T00:33:28;102727.0;;;-1.43;100.0
39295;BME280;52361;52.100;5.248;2022-12-18T00:35:07;102723.0;;;-1.68;100.0
39295;BME280;52361;52.100;5.248;2022-12-18T00:38:19;102722.0;;;-1.55;100.0
39295;BME280;52361;52.100;5.248;2022-12-18T00:39:55;102720.0;;;-1.52;100.0
39295;BME280;52361;52.100;5.248;2022-12-18T00:41:31;102723.0;;;-1.55;100.0
39295;BME280;52361;52.100;5.248;2022-12-18T00:44:45;102722.0;;;-1.74;100.0
39295;BME280;52361;52.100;5.248;2022-12-18T00:46:21;102721.0;;;-1.53;100.0
39295;BME280;52361;52.100;5.248;2022-12-18T00:51:09;102723.0;;;-1.51;100.0
39295;BME280;52361;52.100;5.248;2022-12-18T00:52:46;102722.0;;;-1.68;100.0
39295;BME280;52361;52.100;5.248;2022-12-18T00:54:22;102722.0;;;-1.73;100.0
39295;BME280;52361;52.100;5.248;2022-12-18T00:55:59;102719.0;;;-1.66;100.0
39295;BME280;52361;52.100;5.248;2022-12-18T00:59:11;102723.0;;;-1.8;100.0
39295;BME280;52361;52.100;5.248;2022-12-18T01:00:48;102720.0;;;-1.78;100.0
39295;BME280;52361;52.100;5.248;2022-12-18T01:02:24;102719.0;;;-1.65;100.0
39295;BME280;52361;52.100;5.248;2022-12-18T01:05:38;102717.0;;;-1.83;100.0
39295;BME280;52361;52.100;5.248;2022-12-18T01:07:15;102716.00000000001;;;-1.92;100.0
39295;BME280;52361;52.100;5.248;2022-12-18T01:08:52;102726.0;;;-1.76;100.0
39295;BME280;52361;52.100;5.248;2022-12-18T01:12:05;102731.0;;;-1.58;100.0
39295;BME280;52361;52.100;5.248;2022-12-18T01:13:41;102729.0;;;-1.62;100.0
39295;BME280;52361;52.100;5.248;2022-12-18T01:15:18;102728.0;;;-1.62;100.0
39295;BME280;52361;52.100;5.248;2022-12-18T01:16:55;102726.0;;;-1.52;100.0
39295;BME280;52361;52.100;5.248;2022-12-18T01:20:09;102723.0;;;-1.72;100.0
39295;BME280;52361;52.100;5.248;2022-12-18T01:21:47;102722.0;;;-1.79;100.0
39295;BME280;52361;52.100;5.248;2022-12-18T01:23:23;102723.0;;;-1.67;100.0
39295;BME280;52361;52.100;5.248;2022-12-18T01:26:40;102733.0;;;-1.67;100.0
39295;BME280;52361;52.100;5.248;2022-12-18T01:28:16;102733.99999999999;;;-1.63;100.0
39295;BME280;52361;52.100;5.248;2022-12-18T01:29:53;102733.99999999999;;;-1.67;100.0
39295;BME280;52361;52.100;5.248;2022-12-18T01:31:32;102725.0;;;-1.76;100.0
39295;BME280;52361;52.100;5.248;2022-12-18T01:34:45;102727.0;;;-1.74;100.0
39295;BME280;52361;52.100;5.248;2022-12-18T01:36:24;102732.0;;;-1.8;100.0
39295;BME280;52361;52.100;5.248;2022-12-18T01:38:01;102733.99999999999;;;-1.89;100.0
39295;BME280;52361;52.100;5.248;2022-12-18T01:41:15;102744.0;;;-1.82;100.0
39295;BME280;52361;52.100;5.248;2022-12-18T01:42:55;102742.0;;;-1.76;100.0
39295;BME280;52361;52.100;5.248;2022-12-18T01:45:08;102743.0;;;-1.81;100.0
39295;BME280;52361;52.100;5.248;2022-12-18T01:46:57;102732.0;;;-1.8;100.0
39295;BME280;52361;52.100;5.248;2022-12-18T01:48:33;102731.0;;;-1.67;100.0
39295;BME280;52361;52.100;5.248;2022-12-18T01:51:50;102739.00000000001;;;-1.73;100.0
39295;BME280;52361;52.100;5.248;2022-12-18T01:53:28;102743.0;;;-1.72;100.0
39295;BME280;52361;52.100;5.248;2022-12-18T01:55:05;102744.0;;;-1.74;100.0
39295;BME280;52361;52.100;5.248;2022-12-18T01:56:42;102746.0;;;-1.7;100.0
39295;BME280;52361;52.100;5.248;2022-12-18T02:00:04;102751.0;;;-1.64;100.0
39295;BME280;52361;52.100;5.248;2022-12-18T02:01:43;102746.0;;;-1.64;100.0
39295;BME280;52361;52.100;5.248;2022-12-18T02:03:20;102745.0;;;-1.58;100.0
39295;BME280;52361;52.100;5.248;2022-12-18T02:06:36;102747.0;;;-1.68;100.0
39295;BME280;52361;52.100;5.248;2022-12-18T02:08:19;102744.0;;;-1.84;100.0
39295;BME280;52361;52.100;5.248;2022-12-18T02:10:06;102744.0;;;-1.83;100.0
39295;BME280;52361;52.100;5.248;2022-12-18T02:11:49;102752.0;;;-1.83;100.0
39295;BME280;52361;52.100;5.248;2022-12-18T02:17:06;102758.0;;;-1.97;100.0
39295;BME280;52361;52.100;5.248;2022-12-18T02:18:49;102754.0;;;-1.98;100.0
39295;BME280;52361;52.100;5.248;2022-12-18T02:20:34;102757.0;;;-2.18;100.0
39295;BME280;52361;52.100;5.248;2022-12-18T02:22:22;102761.99999999999;;;-2.38;100.0
39295;BME280;52361;52.100;5.248;2022-12-18T02:24:18;102754.0;;;-2.39;100.0
39295;BME280;52361;52.100;5.248;2022-12-18T02:26:07;102767.0;;;-2.41;100.0
39295;BME280;52361;52.100;5.248;2022-12-18T02:29:31;102764.00000000001;;;-2.48;100.0
39295;BME280;52361;52.100;5.248;2022-12-18T02:31:11;102758.99999999999;;;-2.62;100.0
39295;BME280;52361;52.100;5.248;2022-12-18T02:32:53;102755.0;;;-2.71;100.0
39295;BME280;52361;52.100;5.248;2022-12-18T02:34:32;102753.0;;;-2.66;100.0
39295;BME280;52361;52.100;5.248;2022-12-18T02:37:53;102755.0;;;-2.67;100.0
39295;BME280;52361;52.100;5.248;2022-12-18T02:39:31;102751.0;;;-2.63;100.0
39295;BME280;52361;52.100;5.248;2022-12-18T02:41:09;102752.0;;;-2.71;100.0
39295;BME280;52361;52.100;5.248;2022-12-18T02:42:46;102759.99999999999;;;-2.69;100.0
39295;BME280;52361;52.100;5.248;2022-12-18T02:45:59;102753.0;;;-2.63;100.0
39295;BME280;52361;52.100;5.248;2022-12-18T02:47:56;102742.0;;;-2.72;100.0
39295;BME280;52361;52.100;5.248;2022-12-18T02:49:39;102739.00000000001;;;-2.78;100.0
39295;BME280;52361;52.100;5.248;2022-12-18T02:51:24;102739.00000000001;;;-2.81;100.0
39295;BME280;52361;52.100;5.248;2022-12-18T02:54:57;102738.00000000001;;;-2.78;100.0
39295;BME280;52361;52.100;5.248;2022-12-18T02:56:46;102738.00000000001;;;-2.82;100.0
39295;BME280;52361;52.100;5.248;2022-12-18T02:58:30;102734.99999999999;;;-2.87;100.0
39295;BME280;52361;52.100;5.248;2022-12-18T03:00:13;102731.0;;;-2.92;100.0
39295;BME280;52361;52.100;5.248;2022-12-18T03:03:38;102740.00000000001;;;-3.05;100.0
39295;BME280;52361;52.100;5.248;2022-12-18T03:07:02;102730.0;;;-3.02;100.0
39295;BME280;52361;52.100;5.248;2022-12-18T03:08:44;102723.0;;;-3.0;100.0
39295;BME280;52361;52.100;5.248;2022-12-18T03:10:26;102722.0;;;-2.9;100.0
39295;BME280;52361;52.100;5.248;2022-12-18T03:12:09;102717.0;;;-2.96;100.0
39295;BME280;52361;52.100;5.248;2022-12-18T03:15:35;102720.0;;;-3.16;100.0
39295;BME280;52361;52.100;5.248;2022-12-18T03:17:16;102716.00000000001;;;-3.27;100.0
39295;BME280;52361;52.100;5.248;2022-12-18T03:18:57;102703.0;;;-3.3;100.0
39295;BME280;52361;52.100;5.248;2022-12-18T03:20:39;102708.0;;;-3.4;100.0
39295;BME280;52361;52.100;5.248;2022-12-18T03:23:59;102700.0;;;-3.38;100.0
39295;BME280;52361;52.100;5.248;2022-12-18T03:25:40;102701.0;;;-3.33;100.0
39295;BME280;52361;52.100;5.248;2022-12-18T03:27:20;102698.0;;;-3.32;100.0
39295;BME280;52361;52.100;5.248;2022-12-18T03:29:02;102692.0;;;-3.25;100.0
39295;BME280;52361;52.100;5.248;2022-12-18T03:32:26;102699.0;;;-3.21;100.0
39295;BME280;52361;52.100;5.248;2022-12-18T03:34:09;102691.00000000001;;;-3.3;100.0
39295;BME280;52361;52.100;5.248;2022-12-18T03:35:49;102690.00000000001;;;-3.32;100.0
39295;BME280;52361;52.100;5.248;2022-12-18T03:37:26;102684.99999999999;;;-3.37;100.0
39295;BME280;52361;52.100;5.248;2022-12-18T03:40:53;102684.99999999999;;;-3.41;100.0
39295;BME280;52361;52.100;5.248;2022-12-18T03:42:38;102682.0;;;-3.47;100.0
39295;BME280;52361;52.100;5.248;2022-12-18T03:44:27;102677.0;;;-3.52;100.0
39295;BME280;52361;52.100;5.248;2022-12-18T03:46:13;102682.0;;;-3.58;100.0
39295;BME280;52361;52.100;5.248;2022-12-18T03:47:58;102683.99999999999;;;-3.53;100.0
39295;BME280;52361;52.100;5.248;2022-12-18T03:49:40;102683.0;;;-3.46;100.0
39295;BME280;52361;52.100;5.248;2022-12-18T03:53:14;102682.0;;;-3.44;100.0
39295;BME280;52361;52.100;5.248;2022-12-18T03:54:56;102681.0;;;-3.49;100.0
39295;BME280;52361;52.100;5.248;2022-12-18T03:56:37;102682.0;;;-3.54;100.0
39295;BME280;52361;52.100;5.248;2022-12-18T03:58:18;102676.0;;;-3.3;100.0
39295;BME280;52361;52.100;5.248;2022-12-18T04:01:40;102682.0;;;-3.45;100.0
39295;BME280;52361;52.100;5.248;2022-12-18T04:03:19;102673.0;;;-3.53;100.0
39295;BME280;52361;52.100;5.248;2022-12-18T04:04:59;102670.0;;;-3.46;100.0
39295;BME280;52361;52.100;5.248;2022-12-18T04:06:38;102666.00000000001;;;-3.46;100.0
39295;BME280;52361;52.100;5.248;2022-12-18T04:09:55;102667.0;;;-3.48;100.0
39295;BME280;52361;52.100;5.248;2022-12-18T04:11:32;102661.99999999999;;;-3.33;100.0
39295;BME280;52361;52.100;5.248;2022-12-18T04:13:09;102652.0;;;-3.5;100.0
39295;BME280;52361;52.100;5.248;2022-12-18T04:14:45;102644.0;;;-3.41;100.0
39295;BME280;52361;52.100;5.248;2022-12-18T04:17:57;102636.99999999999;;;-3.38;100.0
39295;BME280;52361;52.100;5.248;2022-12-18T04:19:33;102642.0;;;-3.53;100.0
39295;BME280;52361;52.100;5.248;2022-12-18T04:21:09;102641.00000000001;;;-3.48;100.0
39295;BME280;52361;52.100;5.248;2022-12-18T04:24:24;102643.0;;;-3.34;100.0
39295;BME280;52361;52.100;5.248;2022-12-18T04:26:00;102642.0;;;-3.31;100.0
39295;BME280;52361;52.100;5.248;2022-12-18T04:27:36;102645.0;;;-3.36;100.0
39295;BME280;52361;52.100;5.248;2022-12-18T04:30:48;102640.00000000001;;;-3.33;100.0
39295;BME280;52361;52.100;5.248;2022-12-18T04:32:25;102640.00000000001;;;-3.37;100.0
39295;BME280;52361;52.100;5.248;2022-12-18T04:34:01;102642.0;;;-3.35;100.0
39295;BME280;52361;52.100;5.248;2022-12-18T04:35:37;102643.0;;;-3.25;100.0
39295;BME280;52361;52.100;5.248;2022-12-18T04:38:49;102646.0;;;-3.28;100.0
39295;BME280;52361;52.100;5.248;2022-12-18T04:40:25;102659.99999999999;;;-3.43;100.0
39295;BME280;52361;52.100;5.248;2022-12-18T04:42:02;102661.99999999999;;;-3.36;100.0
39295;BME280;52361;52.100;5.248;2022-12-18T04:45:14;102664.00000000001;;;-3.35;100.0
39295;BME280;52361;52.100;5.248;2022-12-18T04:46:50;102672.0;;;-3.31;100.0
39295;BME280;52361;52.100;5.248;2022-12-18T04:48:26;102679.0;;;-3.41;100.0
39295;BME280;52361;52.100;5.248;2022-12-18T04:51:40;102677.0;;;-3.47;100.0
39295;BME280;52361;52.100;5.248;2022-12-18T04:53:16;102669.0;;;-3.54;100.0
39295;BME280;52361;52.100;5.248;2022-12-18T04:54:52;102675.0;;;-3.52;100.0
39295;BME280;52361;52.100;5.248;2022-12-18T04:58:07;102684.99999999999;;;-3.34;100.0
39295;BME280;52361;52.100;5.248;2022-12-18T04:59:43;102683.0;;;-3.39;100.0
39295;BME280;52361;52.100;5.248;2022-12-18T05:01:19;102684.99999999999;;;-3.57;100.0
39295;BME280;52361;52.100;5.248;2022-12-18T05:02:55;102693.0;;;-3.45;100.0
39295;BME280;52361;52.100;5.248;2022-12-18T05:06:08;102696.0;;;-3.42;100.0
39295;BME280;52361;52.100;5.248;2022-12-18T05:07:45;102688.00000000001;;;-3.49;100.0
39295;BME280;52361;52.100;5.248;2022-12-18T05:09:21;102692.0;;;-3.64;100.0
39295;BME280;52361;52.100;5.248;2022-12-18T05:12:37;102696.0;;;-3.57;100.0
39295;BME280;52361;52.100;5.248;2022-12-18T05:14:13;102697.0;;;-3.5;100.0
39295;BME280;52361;52.100;5.248;2022-12-18T05:15:51;102699.0;;;-3.54;100.0
39295;BME280;52361;52.100;5.248;2022-12-18T05:17:28;102692.0;;;-3.53;100.0
39295;BME280;52361;52.100;5.248;2022-12-18T05:20:40;102701.0;;;-3.67;100.0
39295;BME280;52361;52.100;5.248;2022-12-18T05:22:17;102698.0;;;-3.61;100.0
39295;BME280;52361;52.100;5.248;2022-12-18T05:23:53;102701.0;;;-3.67;100.0
39295;BME280;52361;52.100;5.248;2022-12-18T05:27:05;102714.00000000001;;;-3.57;100.0
39295;BME280;52361;52.100;5.248;2022-12-18T05:28:41;102702.0;;;-3.5;100.0
39295;BME280;52361;52.100;5.248;2022-12-18T05:30:18;102708.99999999999;;;-3.49;100.0
39295;BME280;52361;52.100;5.248;2022-12-18T05:33:32;102716.00000000001;;;-3.52;100.0
39295;BME280;52361;52.100;5.248;2022-12-18T05:35:10;102711.99999999999;;;-3.51;100.0
39295;BME280;52361;52.100;5.248;2022-12-18T05:36:48;102703.0;;;-3.57;100.0
39295;BME280;52361;52.100;5.248;2022-12-18T05:38:25;102705.0;;;-3.56;100.0
39295;BME280;52361;52.100;5.248;2022-12-18T05:41:40;102701.0;;;-3.44;100.0
39295;BME280;52361;52.100;5.248;2022-12-18T05:43:17;102701.0;;;-3.32;100.0
39295;BME280;52361;52.100;5.248;2022-12-18T05:44:53;102695.0;;;-3.42;100.0
39295;BME280;52361;52.100;5.248;2022-12-18T05:48:06;102683.99999999999;;;-3.46;100.0
39295;BME280;52361;52.100;5.248;2022-12-18T05:49:43;102686.99999999999;;;-3.59;100.0
39295;BME280;52361;52.100;5.248;2022-12-18T05:51:21;102691.00000000001;;;-3.5;100.0
39295;BME280;52361;52.100;5.248;2022-12-18T05:54:34;102690.00000000001;;;-3.47;100.0
39295;BME280;52361;52.100;5.248;2022-12-18T05:56:11;102688.00000000001;;;-3.42;100.0
39295;BME280;52361;52.100;5.248;2022-12-18T05:57:50;102682.0;;;-3.48;100.0
39295;BME280;52361;52.100;5.248;2022-12-18T05:59:26;102681.0;;;-3.53;100.0
39295;BME280;52361;52.100;5.248;2022-12-18T06:02:46;102676.0;;;-3.5;100.0
39295;BME280;52361;52.100;5.248;2022-12-18T06:04:23;102672.0;;;-3.41;100.0
39295;BME280;52361;52.100;5.248;2022-12-18T06:05:59;102670.0;;;-3.47;100.0
39295;BME280;52361;52.100;5.248;2022-12-18T06:09:11;102675.0;;;-3.43;100.0
39295;BME280;52361;52.100;5.248;2022-12-18T06:10:50;102671.0;;;-3.47;100.0
39295;BME280;52361;52.100;5.248;2022-12-18T06:12:27;102663.00000000001;;;-3.49;100.0
39295;BME280;52361;52.100;5.248;2022-12-18T06:14:05;102656.0;;;-3.37;100.0
39295;BME280;52361;52.100;5.248;2022-12-18T06:17:17;102653.0;;;-3.31;100.0
39295;BME280;52361;52.100;5.248;2022-12-18T06:18:55;102648.0;;;-3.43;100.0
39295;BME280;52361;52.100;5.248;2022-12-18T06:20:32;102651.0;;;-3.6;100.0
39295;BME280;52361;52.100;5.248;2022-12-18T06:23:44;102645.0;;;-3.48;100.0
39295;BME280;52361;52.100;5.248;2022-12-18T06:25:20;102649.0;;;-3.46;100.0
39295;BME280;52361;52.100;5.248;2022-12-18T06:26:56;102656.0;;;-3.5;100.0
39295;BME280;52361;52.100;5.248;2022-12-18T06:30:10;102656.0;;;-3.44;100.0
39295;BME280;52361;52.100;5.248;2022-12-18T06:31:46;102658.0;;;-3.52;100.0
39295;BME280;52361;52.100;5.248;2022-12-18T06:33:26;102658.99999999999;;;-3.6;100.0
39295;BME280;52361;52.100;5.248;2022-12-18T06:35:03;102652.0;;;-3.57;100.0
39295;BME280;52361;52.100;5.248;2022-12-18T06:38:16;102648.0;;;-3.72;100.0
39295;BME280;52361;52.100;5.248;2022-12-18T06:39:52;102643.0;;;-3.75;100.0
39295;BME280;52361;52.100;5.248;2022-12-18T06:41:28;102641.00000000001;;;-3.75;100.0
39295;BME280;52361;52.100;5.248;2022-12-18T06:44:42;102640.00000000001;;;-3.75;100.0
39295;BME280;52361;52.100;5.248;2022-12-18T06:46:18;102639.00000000001;;;-3.81;100.0
39295;BME280;52361;52.100;5.248;2022-12-18T06:47:55;102632.0;;;-3.91;100.0
39295;BME280;52361;52.100;5.248;2022-12-18T06:49:31;102628.0;;;-3.82;100.0
39295;BME280;52361;52.100;5.248;2022-12-18T06:52:43;102619.0;;;-3.85;100.0
39295;BME280;52361;52.100;5.248;2022-12-18T06:54:20;102607.0;;;-4.08;100.0
39295;BME280;52361;52.100;5.248;2022-12-18T06:56:00;102608.0;;;-4.15;100.0
39295;BME280;52361;52.100;5.248;2022-12-18T06:59:14;102611.99999999999;;;-4.15;100.0
39295;BME280;52361;52.100;5.248;2022-12-18T07:00:50;102611.99999999999;;;-4.21;100.0
39295;BME280;52361;52.100;5.248;2022-12-18T07:02:27;102605.0;;;-4.23;100.0
39295;BME280;52361;52.100;5.248;2022-12-18T07:05:39;102608.0;;;-4.3;100.0
39295;BME280;52361;52.100;5.248;2022-12-18T07:07:16;102609.99999999999;;;-4.34;100.0
39295;BME280;52361;52.100;5.248;2022-12-18T07:08:54;102607.0;;;-4.4;100.0
39295;BME280;52361;52.100;5.248;2022-12-18T07:10:31;102596.0;;;-4.35;100.0
39295;BME280;52361;52.100;5.248;2022-12-18T07:13:44;102598.0;;;-4.35;100.0
39295;BME280;52361;52.100;5.248;2022-12-18T07:16:56;102596.0;;;-4.33;100.0
39295;BME280;52361;52.100;5.248;2022-12-18T07:20:10;102592.0;;;-4.4;100.0
39295;BME280;52361;52.100;5.248;2022-12-18T07:21:46;102589.00000000001;;;-4.38;100.0
39295;BME280;52361;52.100;5.248;2022-12-18T07:23:22;102589.00000000001;;;-4.29;100.0
39295;BME280;52361;52.100;5.248;2022-12-18T07:26:35;102583.99999999999;;;-4.26;100.0
39295;BME280;52361;52.100;5.248;2022-12-18T07:28:11;102592.0;;;-4.32;100.0
39295;BME280;52361;52.100;5.248;2022-12-18T07:29:47;102592.0;;;-4.26;100.0
39295;BME280;52361;52.100;5.248;2022-12-18T07:34:37;102583.0;;;-4.17;100.0
39295;BME280;52361;52.100;5.248;2022-12-18T07:36:14;102576.0;;;-4.06;100.0
39295;BME280;52361;52.100;5.248;2022-12-18T07:37:50;102566.00000000001;;;-4.08;100.0
39295;BME280;52361;52.100;5.248;2022-12-18T07:41:04;102558.0;;;-3.92;100.0
39295;BME280;52361;52.100;5.248;2022-12-18T07:42:40;102557.0;;;-3.97;100.0
39295;BME280;52361;52.100;5.248;2022-12-18T07:44:17;102559.99999999999;;;-3.85;100.0
39295;BME280;52361;52.100;5.248;2022-12-18T07:47:34;102556.0;;;-3.86;100.0
39295;BME280;52361;52.100;5.248;2022-12-18T07:49:10;102552.0;;;-3.79;100.0
39295;BME280;52361;52.100;5.248;2022-12-18T07:50:47;102549.0;;;-3.73;100.0
39295;BME280;52361;52.100;5.248;2022-12-18T07:52:22;102547.0;;;-3.7;100.0
39295;BME280;52361;52.100;5.248;2022-12-18T07:55:35;102550.0;;;-3.6;100.0
39295;BME280;52361;52.100;5.248;2022-12-18T07:57:11;102547.0;;;-3.64;100.0
39295;BME280;52361;52.100;5.248;2022-12-18T07:58:48;102543.0;;;-3.54;100.0
39295;BME280;52361;52.100;5.248;2022-12-18T08:02:00;102542.0;;;-3.46;100.0
39295;BME280;52361;52.100;5.248;2022-12-18T08:03:38;102544.0;;;-3.39;100.0
39295;BME280;52361;52.100;5.248;2022-12-18T08:05:14;102532.0;;;-3.27;100.0
39295;BME280;52361;52.100;5.248;2022-12-18T08:08:27;102527.0;;;-3.22;100.0
39295;BME280;52361;52.100;5.248;2022-12-18T08:10:05;102522.0;;;-3.29;100.0
39295;BME280;52361;52.100;5.248;2022-12-18T08:11:41;102523.0;;;-3.35;100.0
39295;BME280;52361;52.100;5.248;2022-12-18T08:13:18;102531.0;;;-3.26;100.0
39295;BME280;52361;52.100;5.248;2022-12-18T08:16:31;102533.99999999999;;;-3.14;100.0
39295;BME280;52361;52.100;5.248;2022-12-18T08:18:07;102544.0;;;-3.09;100.0
39295;BME280;52361;52.100;5.248;2022-12-18T08:19:43;102545.0;;;-3.1;100.0
39295;BME280;52361;52.100;5.248;2022-12-18T08:22:58;102549.0;;;-2.99;100.0
39295;BME280;52361;52.100;5.248;2022-12-18T08:24:34;102554.0;;;-2.96;100.0
39295;BME280;52361;52.100;5.248;2022-12-18T08:26:11;102555.0;;;-2.96;100.0
39295;BME280;52361;52.100;5.248;2022-12-18T08:29:24;102558.99999999999;;;-2.98;100.0
39295;BME280;52361;52.100;5.248;2022-12-18T08:31:00;102557.0;;;-2.85;100.0
39295;BME280;52361;52.100;5.248;2022-12-18T08:32:36;102553.0;;;-2.87;100.0
39295;BME280;52361;52.100;5.248;2022-12-18T08:34:11;102557.0;;;-2.89;100.0
39295;BME280;52361;52.100;5.248;2022-12-18T08:37:24;102564.00000000001;;;-2.64;100.0
39295;BME280;52361;52.100;5.248;2022-12-18T08:39:00;102564.00000000001;;;-2.67;100.0
39295;BME280;52361;52.100;5.248;2022-12-18T08:40:36;102566.00000000001;;;-2.57;100.0
39295;BME280;52361;52.100;5.248;2022-12-18T08:43:48;102561.99999999999;;;-2.51;100.0
39295;BME280;52361;52.100;5.248;2022-12-18T08:45:25;102557.0;;;-2.38;100.0
39295;BME280;52361;52.100;5.248;2022-12-18T08:47:01;102551.0;;;-2.66;100.0
39295;BME280;52361;52.100;5.248;2022-12-18T08:50:14;102550.0;;;-2.5;100.0
39295;BME280;52361;52.100;5.248;2022-12-18T08:51:54;102545.0;;;-2.42;100.0
39295;BME280;52361;52.100;5.248;2022-12-18T08:53:30;102540.00000000001;;;-2.11;100.0
39295;BME280;52361;52.100;5.248;2022-12-18T08:55:08;102542.0;;;-1.97;100.0
39295;BME280;52361;52.100;5.248;2022-12-18T08:58:21;102542.0;;;-2.06;100.0
39295;BME280;52361;52.100;5.248;2022-12-18T08:59:57;102539.00000000001;;;-2.0;100.0
39295;BME280;52361;52.100;5.248;2022-12-18T09:01:33;102539.00000000001;;;-1.9;100.0
39295;BME280;52361;52.100;5.248;2022-12-18T09:04:48;102534.99999999999;;;-1.93;100.0
39295;BME280;52361;52.100;5.248;2022-12-18T09:06:24;102532.0;;;-1.97;100.0
39295;BME280;52361;52.100;5.248;2022-12-18T09:08:00;102536.99999999999;;;-2.01;100.0
39295;BME280;52361;52.100;5.248;2022-12-18T09:11:15;102530.0;;;-2.01;100.0
39295;BME280;52361;52.100;5.248;2022-12-18T09:12:54;102534.99999999999;;;-1.83;100.0
39295;BME280;52361;52.100;5.248;2022-12-18T09:14:30;102544.0;;;-1.85;100.0
39295;BME280;52361;52.100;5.248;2022-12-18T09:16:06;102547.0;;;-1.77;100.0
39295;BME280;52361;52.100;5.248;2022-12-18T09:19:19;102546.0;;;-1.79;100.0
39295;BME280;52361;52.100;5.248;2022-12-18T09:20:55;102543.0;;;-1.67;100.0
39295;BME280;52361;52.100;5.248;2022-12-18T09:22:31;102541.00000000001;;;-1.45;100.0
39295;BME280;52361;52.100;5.248;2022-12-18T09:25:49;102542.0;;;-1.75;100.0
39295;BME280;52361;52.100;5.248;2022-12-18T09:27:25;102542.0;;;-1.66;100.0
39295;BME280;52361;52.100;5.248;2022-12-18T09:29:02;102543.0;;;-1.55;100.0
39295;BME280;52361;52.100;5.248;2022-12-18T09:30:39;102542.0;;;-1.42;100.0
39295;BME280;52361;52.100;5.248;2022-12-18T09:33:54;102533.99999999999;;;-1.51;100.0
39295;BME280;52361;52.100;5.248;2022-12-18T09:35:30;102528.0;;;-1.37;100.0
39295;BME280;52361;52.100;5.248;2022-12-18T09:37:07;102521.0;;;-1.42;100.0
39295;BME280;52361;52.100;5.248;2022-12-18T09:40:22;102522.0;;;-1.58;100.0
39295;BME280;52361;52.100;5.248;2022-12-18T09:42:01;102522.0;;;-1.65;100.0
39295;BME280;52361;52.100;5.248;2022-12-18T09:43:41;102515.00000000001;;;-1.63;100.0
39295;BME280;52361;52.100;5.248;2022-12-18T09:48:48;102515.00000000001;;;-1.39;100.0
39295;BME280;52361;52.100;5.248;2022-12-18T09:50:29;102508.0;;;-1.41;100.0
39295;BME280;52361;52.100;5.248;2022-12-18T09:52:12;102513.00000000001;;;-1.28;100.0
39295;BME280;52361;52.100;5.248;2022-12-18T09:53:55;102513.00000000001;;;-1.37;100.0
39295;BME280;52361;52.100;5.248;2022-12-18T09:57:15;102511.99999999999;;;-1.07;100.0
39295;BME280;52361;52.100;5.248;2022-12-18T09:58:58;102516.00000000001;;;-1.1;98.7
39295;BME280;52361;52.100;5.248;2022-12-18T10:00:35;102509.99999999999;;;-1.09;99.27
39295;BME280;52361;52.100;5.248;2022-12-18T10:02:15;102501.0;;;-1.14;99.12
39295;BME280;52361;52.100;5.248;2022-12-18T10:05:35;102497.0;;;-1.29;99.36
39295;BME280;52361;52.100;5.248;2022-12-18T10:07:27;102497.0;;;-1.0;99.67
39295;BME280;52361;52.100;5.248;2022-12-18T10:09:16;102501.0;;;-0.81;98.66
39295;BME280;52361;52.100;5.248;2022-12-18T10:11:01;102495.0;;;-0.91;98.3
39295;BME280;52361;52.100;5.248;2022-12-18T10:12:49;102494.0;;;-0.72;98.26
39295;BME280;52361;52.100;5.248;2022-12-18T10:14:38;102489.00000000001;;;-0.68;97.49
39295;BME280;52361;52.100;5.248;2022-12-18T10:18:12;102496.0;;;-0.75;98.02
39295;BME280;52361;52.100;5.248;2022-12-18T10:20:00;102502.0;;;-0.66;97.32
39295;BME280;52361;52.100;5.248;2022-12-18T10:21:42;102508.0;;;-0.68;96.76
39295;BME280;52361;52.100;5.248;2022-12-18T10:23:28;102506.0;;;-0.69;97.14
39295;BME280;52361;52.100;5.248;2022-12-18T10:25:17;102501.0;;;-0.57;96.69
39295;BME280;52361;52.100;5.248;2022-12-18T10:28:45;102502.0;;;-0.69;97.04
39295;BME280;52361;52.100;5.248;2022-12-18T10:30:24;102497.0;;;-0.42;96.28
39295;BME280;52361;52.100;5.248;2022-12-18T10:32:01;102495.0;;;-0.66;95.95
39295;BME280;52361;52.100;5.248;2022-12-18T10:33:38;102490.00000000001;;;-0.38;95.8
39295;BME280;52361;52.100;5.248;2022-12-18T10:36:55;102482.0;;;-0.47;95.7
39295;BME280;52361;52.100;5.248;2022-12-18T10:38:33;102483.99999999999;;;-0.46;95.72
39295;BME280;52361;52.100;5.248;2022-12-18T10:40:11;102489.00000000001;;;-0.3;95.36
39295;BME280;52361;52.100;5.248;2022-12-18T10:43:27;102478.0;;;-0.24;94.92
39295;BME280;52361;52.100;5.248;2022-12-18T10:45:09;102472.0;;;-0.22;94.41
39295;BME280;52361;52.100;5.248;2022-12-18T10:46:52;102458.99999999999;;;-0.44;94.56
39295;BME280;52361;52.100;5.248;2022-12-18T10:48:30;102461.99999999999;;;-0.47;95.66
39295;BME280;52361;52.100;5.248;2022-12-18T10:50:18;102454.0;;;-0.36;94.51
39295;BME280;52361;52.100;5.248;2022-12-18T10:53:51;102452.0;;;-0.21;94.42
39295;BME280;52361;52.100;5.248;2022-12-18T10:55:32;102458.99999999999;;;-0.18;94.45